Time;durP1;ratioP1;P1;durP2;ratioP2;P2;SDS_P1;SDS_P2;PMS_P1;PMS_P2;Temp;Humidity;BMP_temperature;BMP_pressure;BME280_temperature;BME280_humidity;BME280_pressure;Samples;Min_cycle;Max_cycle;Signal;HPM_P1;HPM_P2
2021/09/02 00:00:10;;;;;;;9.03;8.10;;;14.10;99.90;;;;;;5031339;28;20456;-61
2021/09/02 00:02:37;;;;;;;10.07;8.20;;;14.10;99.90;;;;;;5031598;28;20958;-61
2021/09/02 00:05:05;;;;;;;9.70;7.90;;;14.10;99.90;;;;;;5031082;28;20900;-61
2021/09/02 00:07:32;;;;;;;11.17;9.50;;;14.10;99.90;;;;;;5031084;28;20472;-61
2021/09/02 00:09:59;;;;;;;11.30;9.10;;;14.10;99.90;;;;;;5031102;28;20448;-61
2021/09/02 00:12:27;;;;;;;10.83;9.20;;;14.00;99.90;;;;;;5023968;28;20883;-61
2021/09/02 00:14:54;;;;;;;12.40;9.07;;;14.00;99.90;;;;;;5031816;28;20456;-61
2021/09/02 00:17:21;;;;;;;11.77;8.97;;;13.90;99.90;;;;;;5031522;28;20665;-62
2021/09/02 00:19:48;;;;;;;11.13;8.43;;;13.90;99.90;;;;;;5030567;28;20483;-61
2021/09/02 00:22:15;;;;;;;10.60;8.70;;;13.90;99.90;;;;;;5030834;28;20449;-61
2021/09/02 00:24:42;;;;;;;11.30;9.03;;;14.00;99.90;;;;;;5031001;28;20958;-61
2021/09/02 00:27:09;;;;;;;10.60;8.17;;;14.00;99.90;;;;;;5031138;28;20488;-61
2021/09/02 00:29:38;;;;;;;11.57;8.87;;;14.00;99.90;;;;;;5032201;28;20448;-61
2021/09/02 00:32:06;;;;;;;11.90;9.00;;;13.90;99.90;;;;;;5034987;28;20484;-61
2021/09/02 00:34:33;;;;;;;10.70;8.90;;;13.90;99.90;;;;;;5034914;28;20519;-61
2021/09/02 00:37:00;;;;;;;12.40;9.23;;;13.90;99.90;;;;;;5035146;28;20468;-62
2021/09/02 00:39:27;;;;;;;16.17;9.30;;;13.90;99.90;;;;;;5034599;28;20929;-61
2021/09/02 00:41:54;;;;;;;14.53;9.67;;;13.80;99.90;;;;;;5035013;28;20869;-61
2021/09/02 00:44:35;;;;;;;12.20;9.40;;;13.60;99.90;;;;;;5034622;28;20494;-61
2021/09/02 00:47:04;;;;;;;12.37;10.10;;;13.60;99.90;;;;;;5034784;28;20475;-61
2021/09/02 00:49:31;;;;;;;14.00;10.03;;;13.60;99.90;;;;;;5015221;28;20515;-61
2021/09/02 00:52:00;;;;;;;12.57;10.07;;;13.50;99.90;;;;;;5030409;28;20480;-61
2021/09/02 00:54:27;;;;;;;13.50;10.13;;;13.60;99.90;;;;;;5034836;28;20495;-61
2021/09/02 00:56:54;;;;;;;11.40;9.00;;;13.60;99.90;;;;;;5034490;28;20468;-61
2021/09/02 00:59:21;;;;;;;9.50;8.00;;;13.60;99.90;;;;;;5034627;28;20452;-61
2021/09/02 01:01:48;;;;;;;10.63;8.73;;;13.60;99.90;;;;;;5034988;28;20876;-61
2021/09/02 01:04:17;;;;;;;10.30;8.30;;;13.60;99.90;;;;;;5033842;28;20444;-61
2021/09/02 01:06:46;;;;;;;12.23;8.73;;;13.60;99.90;;;;;;5014969;28;20469;-61
2021/09/02 01:09:13;;;;;;;13.73;9.70;;;13.60;99.90;;;;;;5032595;28;20453;-61
2021/09/02 01:11:40;;;;;;;13.10;9.80;;;13.40;99.90;;;;;;5034124;28;20484;-61
2021/09/02 01:14:07;;;;;;;12.90;9.00;;;13.40;99.90;;;;;;5034391;28;20835;-61
2021/09/02 01:16:34;;;;;;;15.77;9.20;;;13.40;99.90;;;;;;5034321;28;20538;-61
2021/09/02 01:19:01;;;;;;;11.30;8.47;;;13.50;99.90;;;;;;5033828;28;20452;-61
2021/09/02 01:21:30;;;;;;;11.27;8.70;;;13.50;99.90;;;;;;5033550;28;20852;-61
2021/09/02 01:23:58;;;;;;;14.27;9.37;;;13.40;99.90;;;;;;5034213;28;20444;-61
2021/09/02 01:26:25;;;;;;;13.17;9.30;;;13.40;99.90;;;;;;5034147;28;20484;-61
2021/09/02 01:28:52;;;;;;;12.17;8.57;;;13.40;99.90;;;;;;5034140;28;20515;-60
2021/09/02 01:31:21;;;;;;;10.30;7.80;;;13.40;99.90;;;;;;5033306;28;20480;-61
2021/09/02 01:33:49;;;;;;;10.70;8.80;;;13.40;99.90;;;;;;5034061;28;20456;-61
2021/09/02 01:36:16;;;;;;;11.40;8.30;;;13.40;99.90;;;;;;5033686;28;20472;-61
2021/09/02 01:38:43;;;;;;;12.07;9.67;;;13.30;99.90;;;;;;5034238;28;20511;-61
2021/09/02 01:41:12;;;;;;;11.00;8.57;;;13.20;99.90;;;;;;5033033;28;20506;-61
2021/09/02 01:43:39;;;;;;;9.97;8.97;;;13.20;99.90;;;;;;5033922;28;20445;-62
2021/09/02 01:46:06;;;;;;;10.40;8.33;;;13.20;99.90;;;;;;5032884;28;20503;-61
2021/09/02 01:48:34;;;;;;;10.50;8.00;;;13.20;99.90;;;;;;5033885;28;20457;-62
2021/09/02 01:51:01;;;;;;;13.40;8.73;;;13.20;99.90;;;;;;5033032;28;20456;-61
2021/09/02 01:53:28;;;;;;;13.67;8.60;;;13.10;99.90;;;;;;5033785;28;20542;-61
2021/09/02 01:55:55;;;;;;;12.70;9.23;;;13.10;99.90;;;;;;5033786;28;20480;-61
2021/09/02 01:58:24;;;;;;;9.63;8.50;;;13.20;99.90;;;;;;5032368;28;20452;-61
2021/09/02 02:00:51;;;;;;;11.43;8.87;;;13.00;99.90;;;;;;5029055;28;20527;-60
2021/09/02 02:03:18;;;;;;;18.73;8.80;;;13.10;99.90;;;;;;5033599;28;20508;-61
2021/09/02 02:05:45;;;;;;;12.40;9.07;;;13.10;99.90;;;;;;5033462;28;20518;-61
2021/09/02 02:08:15;;;;;;;10.60;8.97;;;13.10;99.90;;;;;;5033180;28;20468;-61
2021/09/02 02:10:42;;;;;;;9.70;8.03;;;12.90;99.90;;;;;;5033313;28;20548;-61
2021/09/02 02:13:09;;;;;;;12.23;9.20;;;13.00;99.90;;;;;;5032582;28;20550;-62
2021/09/02 02:15:38;;;;;;;10.73;8.33;;;13.00;99.90;;;;;;5033651;28;20498;-61
2021/09/02 02:18:05;;;;;;;16.87;9.73;;;12.90;99.90;;;;;;5033128;28;20523;-60
2021/09/02 02:20:32;;;;;;;13.67;9.80;;;13.00;99.90;;;;;;5032652;28;20452;-61
2021/09/02 02:22:59;;;;;;;10.03;7.83;;;13.00;99.90;;;;;;5032980;28;20498;-61
2021/09/02 02:25:26;;;;;;;11.73;9.03;;;13.00;99.90;;;;;;5033077;28;20457;-61
2021/09/02 02:27:53;;;;;;;14.50;8.80;;;13.00;99.90;;;;;;5032409;28;20550;-61
2021/09/02 02:30:21;;;;;;;10.50;8.90;;;13.00;99.90;;;;;;5032968;28;20938;-61
2021/09/02 02:32:50;;;;;;;10.40;8.70;;;12.90;99.90;;;;;;5032411;28;20484;-61
2021/09/02 02:35:18;;;;;;;11.77;8.63;;;12.90;99.90;;;;;;5030324;28;20510;-61
2021/09/02 02:37:46;;;;;;;11.53;8.30;;;12.80;99.90;;;;;;5032886;28;20472;-61
2021/09/02 02:40:14;;;;;;;12.10;7.67;;;12.80;99.90;;;;;;5032185;28;20530;-61
2021/09/02 02:42:41;;;;;;;10.60;8.20;;;12.80;99.90;;;;;;5032653;28;20954;-61
2021/09/02 02:45:10;;;;;;;11.90;8.40;;;12.80;99.90;;;;;;5032865;28;20498;-61
2021/09/02 02:47:37;;;;;;;9.77;7.83;;;12.70;99.90;;;;;;5032538;28;20468;-61
2021/09/02 02:50:06;;;;;;;11.47;9.13;;;12.70;99.90;;;;;;5032562;28;20445;-61
2021/09/02 02:52:34;;;;;;;10.67;8.20;;;12.60;99.90;;;;;;5031486;28;20528;-61
2021/09/02 02:55:01;;;;;;;10.47;7.50;;;12.70;99.90;;;;;;5013249;28;20453;-61
2021/09/02 02:57:28;;;;;;;11.13;8.27;;;12.70;99.90;;;;;;5030145;28;20554;-61
2021/09/02 02:59:55;;;;;;;9.43;8.10;;;12.70;99.90;;;;;;5032664;28;20506;-61
2021/09/02 03:02:22;;;;;;;12.33;8.60;;;12.70;99.90;;;;;;5032277;28;20518;-61
2021/09/02 03:04:49;;;;;;;10.70;8.70;;;12.60;99.90;;;;;;5031793;28;20453;-61
2021/09/02 03:07:17;;;;;;;11.30;8.67;;;12.60;99.90;;;;;;5031137;28;20472;-61
2021/09/02 03:09:44;;;;;;;14.70;8.57;;;12.60;99.90;;;;;;5032594;28;20449;-61
2021/09/02 03:12:11;;;;;;;10.20;7.70;;;12.70;99.90;;;;;;5031779;28;20480;-60
2021/09/02 03:14:38;;;;;;;11.73;8.30;;;12.70;99.90;;;;;;5031507;28;20440;-61
2021/09/02 03:17:05;;;;;;;11.73;8.60;;;12.70;99.90;;;;;;5030750;28;20528;-61
2021/09/02 03:19:32;;;;;;;9.30;7.87;;;12.70;99.90;;;;;;5031829;28;20456;-61
2021/09/02 03:21:59;;;;;;;10.90;8.00;;;12.60;99.90;;;;;;5031269;28;20444;-61
2021/09/02 03:24:27;;;;;;;11.73;8.23;;;12.60;99.90;;;;;;5030874;28;20445;-60
2021/09/02 03:26:54;;;;;;;11.40;8.37;;;12.60;99.90;;;;;;5030834;28;20481;-61
2021/09/02 03:29:21;;;;;;;10.57;8.37;;;12.60;99.90;;;;;;5032149;28;20811;-61
2021/09/02 03:31:48;;;;;;;12.20;8.67;;;12.50;99.90;;;;;;5031147;28;20883;-61
2021/09/02 03:34:15;;;;;;;10.17;8.40;;;12.50;99.90;;;;;;5031496;28;20871;-61
2021/09/02 03:36:45;;;;;;;14.47;8.80;;;12.50;99.90;;;;;;5031989;28;20518;-61
2021/09/02 03:39:12;;;;;;;11.13;8.90;;;12.50;99.90;;;;;;5031303;28;20459;-61
2021/09/02 03:41:40;;;;;;;11.20;9.20;;;12.50;99.90;;;;;;5031646;28;20457;-60
2021/09/02 03:44:08;;;;;;;10.67;8.70;;;12.50;99.90;;;;;;5031423;28;20996;-61
2021/09/02 03:46:35;;;;;;;13.03;8.63;;;12.50;99.90;;;;;;5030668;28;20468;-61
2021/09/02 03:49:02;;;;;;;11.50;9.20;;;12.50;99.90;;;;;;5031042;28;20877;-61
2021/09/02 03:51:29;;;;;;;12.63;9.13;;;12.50;99.90;;;;;;5031063;28;20452;-61
2021/09/02 03:53:56;;;;;;;15.80;11.07;;;12.50;99.90;;;;;;5030923;28;20539;-61
2021/09/02 03:56:23;;;;;;;12.57;9.50;;;12.30;99.90;;;;;;5031712;28;20499;-60
2021/09/02 03:58:52;;;;;;;10.63;8.40;;;12.30;99.90;;;;;;5029192;28;20454;-61
2021/09/02 04:01:19;;;;;;;12.37;8.47;;;12.40;99.90;;;;;;5029951;28;20528;-61
2021/09/02 04:03:46;;;;;;;12.57;9.20;;;12.40;99.90;;;;;;5030373;28;20440;-60
2021/09/02 04:06:13;;;;;;;12.13;8.93;;;12.40;99.90;;;;;;5036535;28;20878;-61
2021/09/02 04:08:40;;;;;;;14.80;9.30;;;12.40;99.90;;;;;;5037307;28;20453;-60
2021/09/02 04:11:07;;;;;;;11.23;8.33;;;12.40;99.90;;;;;;5036697;28;20942;-61
2021/09/02 04:13:34;;;;;;;12.10;9.23;;;12.40;99.90;;;;;;5036932;28;20928;-61
2021/09/02 04:16:03;;;;;;;14.03;9.50;;;12.30;99.90;;;;;;5036686;28;21294;-60
2021/09/02 04:18:30;;;;;;;10.13;8.33;;;12.20;99.90;;;;;;5036920;28;20445;-60
2021/09/02 04:20:58;;;;;;;10.73;8.23;;;12.20;99.90;;;;;;5036257;28;20452;-60
2021/09/02 04:23:25;;;;;;;10.63;8.27;;;12.30;99.90;;;;;;5034514;28;20515;-61
2021/09/02 04:25:52;;;;;;;11.57;8.13;;;12.30;99.90;;;;;;5036566;28;20487;-62
2021/09/02 04:28:19;;;;;;;9.40;7.50;;;12.30;99.90;;;;;;5036770;28;20930;-61
2021/09/02 04:30:46;;;;;;;9.57;7.80;;;12.30;99.90;;;;;;5034484;28;20526;-61
2021/09/02 04:33:15;;;;;;;11.73;7.70;;;12.00;99.90;;;;;;5036427;28;20477;-61
2021/09/02 04:35:42;;;;;;;10.40;8.13;;;12.00;99.90;;;;;;5035720;28;20514;-61
2021/09/02 04:38:09;;;;;;;9.50;7.80;;;12.00;99.90;;;;;;5036409;28;20464;-61
2021/09/02 04:40:36;;;;;;;9.10;7.30;;;12.00;99.90;;;;;;5036351;28;20974;-62
2021/09/02 04:43:04;;;;;;;9.10;7.50;;;12.00;99.90;;;;;;5036504;28;20441;-59
2021/09/02 04:45:31;;;;;;;10.93;7.60;;;12.10;99.90;;;;;;5035420;28;20530;-59
2021/09/02 04:47:58;;;;;;;11.00;7.73;;;12.10;99.90;;;;;;5036641;28;20985;-59
2021/09/02 04:50:27;;;;;;;12.30;8.30;;;12.10;99.90;;;;;;5029228;28;20449;-59
2021/09/02 04:52:54;;;;;;;10.30;7.60;;;12.00;99.90;;;;;;5021519;28;20476;-59
2021/09/02 04:55:21;;;;;;;8.50;7.03;;;12.00;99.90;;;;;;5037688;28;20628;-59
2021/09/02 04:57:48;;;;;;;12.20;7.30;;;12.10;99.90;;;;;;5037358;28;20480;-59
2021/09/02 05:00:15;;;;;;;10.17;7.83;;;12.00;99.90;;;;;;5037133;28;20942;-59
2021/09/02 05:02:42;;;;;;;13.20;8.30;;;12.00;99.90;;;;;;5037900;28;20444;-59
2021/09/02 05:05:09;;;;;;;10.90;8.83;;;12.00;99.90;;;;;;5037257;28;20448;-59
2021/09/02 05:07:38;;;;;;;12.20;7.90;;;12.10;99.90;;;;;;5036455;28;20476;-59
2021/09/02 05:10:08;;;;;;;10.70;8.47;;;12.10;99.90;;;;;;5032956;28;20448;-58
2021/09/02 05:12:35;;;;;;;10.67;8.90;;;12.10;99.90;;;;;;5036252;28;20484;-59
2021/09/02 05:15:02;;;;;;;12.10;8.23;;;12.00;99.90;;;;;;5036360;28;20452;-59
2021/09/02 05:17:29;;;;;;;14.37;7.90;;;12.20;99.90;;;;;;5032073;28;20464;-59
2021/09/02 05:19:57;;;;;;;11.43;8.10;;;12.20;99.90;;;;;;5033108;28;20444;-59
2021/09/02 05:22:24;;;;;;;9.00;7.90;;;12.20;99.90;;;;;;5032945;28;20451;-59
2021/09/02 05:24:53;;;;;;;9.37;6.73;;;12.30;99.90;;;;;;5032130;28;20946;-59
2021/09/02 05:27:20;;;;;;;10.50;7.70;;;12.40;99.90;;;;;;5031006;28;20473;-59
2021/09/02 05:29:47;;;;;;;13.30;8.07;;;12.40;99.90;;;;;;5033488;28;20942;-59
2021/09/02 05:32:14;;;;;;;9.07;7.27;;;12.50;99.90;;;;;;5033680;28;20449;-59
2021/09/02 05:34:41;;;;;;;9.53;7.50;;;12.50;99.90;;;;;;5032620;28;20449;-59
2021/09/02 05:37:08;;;;;;;11.27;7.60;;;12.60;99.90;;;;;;5033099;28;20884;-59
2021/09/02 05:39:35;;;;;;;10.87;8.50;;;12.90;99.90;;;;;;5029795;28;20459;-59
2021/09/02 05:42:04;;;;;;;10.33;7.53;;;13.30;99.90;;;;;;5032338;28;20449;-59
2021/09/02 05:44:31;;;;;;;10.00;7.80;;;14.10;99.90;;;;;;5033755;28;20493;-59
2021/09/02 05:46:58;;;;;;;9.90;6.50;;;15.20;99.90;;;;;;5033208;28;20898;-59
2021/09/02 05:49:25;;;;;;;9.53;6.90;;;16.20;99.90;;;;;;5030052;28;20810;-59
2021/09/02 05:51:52;;;;;;;7.90;6.20;;;17.10;99.90;;;;;;5033358;28;20457;-59
2021/09/02 05:54:19;;;;;;;6.80;6.10;;;17.80;99.90;;;;;;5032946;28;20523;-59
2021/09/02 05:56:46;;;;;;;8.47;5.60;;;18.50;99.90;;;;;;5031982;28;20978;-59
2021/09/02 05:59:15;;;;;;;6.83;5.63;;;19.10;99.90;;;;;;5027494;28;20445;-60
2021/09/02 06:01:42;;;;;;;6.60;5.73;;;19.80;99.90;;;;;;5030944;28;20448;-59
2021/09/02 06:04:09;;;;;;;8.60;5.80;;;20.20;99.90;;;;;;5031684;28;20512;-60
2021/09/02 06:06:36;;;;;;;9.37;6.37;;;20.30;99.90;;;;;;5033484;28;21174;-60
2021/09/02 06:09:03;;;;;;;7.10;5.50;;;20.70;99.90;;;;;;5032704;28;20453;-59
2021/09/02 06:11:30;;;;;;;7.13;5.40;;;20.70;99.90;;;;;;5032892;28;20448;-60
2021/09/02 06:13:57;;;;;;;7.83;5.60;;;21.30;99.90;;;;;;5033405;28;20476;-60
2021/09/02 06:16:26;;;;;;;7.10;5.30;;;21.70;99.90;;;;;;5013540;28;20473;-59
2021/09/02 06:18:53;;;;;;;8.93;4.40;;;21.70;99.90;;;;;;5032769;28;20461;-60
2021/09/02 06:21:20;;;;;;;5.57;4.87;;;21.60;99.90;;;;;;5033175;28;20457;-60
2021/09/02 06:23:47;;;;;;;8.40;5.27;;;22.00;99.90;;;;;;5032851;28;20445;-60
2021/09/02 06:26:14;;;;;;;5.93;4.73;;;22.30;99.90;;;;;;5032423;28;20534;-60
2021/09/02 06:28:41;;;;;;;5.70;4.80;;;22.20;99.90;;;;;;5032814;28;20505;-60
2021/09/02 06:31:08;;;;;;;8.20;5.20;;;22.50;99.90;;;;;;5032666;28;20449;-60
2021/09/02 06:33:38;;;;;;;6.43;5.27;;;20.80;99.90;;;;;;5032837;28;20627;-60
2021/09/02 06:36:05;;;;;;;9.17;5.10;;;21.40;99.90;;;;;;5032634;28;20452;-60
2021/09/02 06:38:33;;;;;;;5.23;4.73;;;21.60;99.90;;;;;;5032040;28;20452;-60
2021/09/02 06:41:00;;;;;;;7.60;4.73;;;22.30;99.90;;;;;;5032395;28;20519;-60
2021/09/02 06:43:26;;;;;;;4.73;4.23;;;21.60;99.90;;;;;;5012973;28;20500;-60
2021/09/02 06:45:53;;;;;;;6.70;5.20;;;22.30;99.90;;;;;;5013150;28;20446;-60
2021/09/02 06:48:20;;;;;;;5.33;4.70;;;22.80;99.90;;;;;;5013042;28;20449;-60
2021/09/02 06:50:49;;;;;;;7.00;5.40;;;22.50;99.90;;;;;;5027531;28;20460;-60
2021/09/02 06:53:16;;;;;;;5.77;4.50;;;21.70;99.90;;;;;;5032548;28;20480;-60
2021/09/02 06:55:43;;;;;;;5.70;5.00;;;22.30;99.90;;;;;;5032309;28;20460;-60
2021/09/02 06:58:10;;;;;;;6.60;5.30;;;21.50;99.90;;;;;;5032732;28;20464;-60
2021/09/02 07:00:37;;;;;;;7.00;4.43;;;21.90;99.90;;;;;;5032119;28;20534;-60
2021/09/02 07:03:04;;;;;;;6.97;5.30;;;22.60;99.90;;;;;;5032593;28;20444;-60
2021/09/02 07:05:31;;;;;;;6.83;5.27;;;22.80;99.90;;;;;;5032283;28;20499;-60
2021/09/02 07:07:59;;;;;;;7.43;5.60;;;22.70;99.90;;;;;;5031137;28;20468;-61
2021/09/02 07:10:26;;;;;;;8.63;5.53;;;23.40;99.90;;;;;;5032018;28;20456;-60
2021/09/02 07:12:53;;;;;;;5.67;5.17;;;24.00;99.90;;;;;;5031834;28;20449;-60
2021/09/02 07:15:20;;;;;;;6.80;5.77;;;24.60;99.90;;;;;;5032258;28;20470;-61
2021/09/02 07:17:47;;;;;;;9.73;6.10;;;25.00;99.90;;;;;;5032061;28;20477;-61
2021/09/02 07:20:14;;;;;;;6.37;5.23;;;25.10;99.90;;;;;;5030875;28;21015;-61
2021/09/02 07:22:41;;;;;;;7.50;6.03;;;25.30;99.90;;;;;;5031910;28;20509;-61
2021/09/02 07:25:13;;;;;;;9.30;5.70;;;25.40;99.90;;;;;;5032168;28;20442;-61
2021/09/02 07:27:40;;;;;;;6.00;5.40;;;25.30;99.90;;;;;;5031901;28;20480;-61
2021/09/02 07:30:08;;;;;;;6.17;5.57;;;25.60;99.90;;;;;;5031762;28;20804;-61
2021/09/02 07:32:35;;;;;;;6.63;5.67;;;25.60;99.90;;;;;;5032047;28;20506;-61
2021/09/02 07:35:02;;;;;;;6.40;5.80;;;25.80;99.90;;;;;;5031872;28;20480;-61
2021/09/02 07:37:29;;;;;;;6.07;5.47;;;25.90;99.90;;;;;;5031796;28;20526;-61
2021/09/02 07:39:56;;;;;;;6.83;6.10;;;25.30;99.90;;;;;;5030251;28;20476;-61
2021/09/02 07:42:24;;;;;;;8.63;5.70;;;25.50;99.90;;;;;;5031274;28;21206;-61
2021/09/02 07:44:51;;;;;;;6.83;6.13;;;25.60;99.90;;;;;;5031875;28;20556;-61
2021/09/02 07:47:18;;;;;;;6.30;5.70;;;24.20;99.90;;;;;;5031718;28;20523;-60
2021/09/02 07:49:45;;;;;;;6.60;5.90;;;24.60;99.90;;;;;;5031152;28;20456;-61
2021/09/02 07:52:12;;;;;;;6.47;5.77;;;25.30;99.90;;;;;;5031441;28;20502;-61
2021/09/02 07:54:39;;;;;;;6.50;5.90;;;25.20;99.90;;;;;;5031576;28;20484;-60
2021/09/02 07:57:06;;;;;;;6.97;6.27;;;24.30;99.90;;;;;;5030820;28;20546;-61
2021/09/02 07:59:34;;;;;;;6.67;5.97;;;24.70;99.90;;;;;;5031599;28;20456;-61
2021/09/02 08:02:01;;;;;;;7.83;6.60;;;24.30;99.90;;;;;;5031350;28;20448;-61
2021/09/02 08:04:28;;;;;;;6.67;5.47;;;23.40;99.90;;;;;;5030748;28;20879;-61
2021/09/02 08:06:55;;;;;;;7.93;5.50;;;23.70;99.90;;;;;;5031578;28;20472;-61
2021/09/02 08:09:22;;;;;;;7.00;5.70;;;24.40;99.90;;;;;;5031495;28;20456;-61
2021/09/02 08:11:49;;;;;;;6.40;5.77;;;24.70;99.90;;;;;;5031423;28;20507;-61
2021/09/02 08:14:16;;;;;;;5.77;5.03;;;24.20;99.90;;;;;;5030418;28;20480;-61
2021/09/02 08:16:44;;;;;;;5.70;5.10;;;24.20;99.90;;;;;;5031647;28;20472;-61
2021/09/02 08:19:11;;;;;;;9.17;4.97;;;23.70;99.90;;;;;;5031275;28;20519;-62
2021/09/02 08:21:39;;;;;;;5.70;4.60;;;23.00;99.90;;;;;;5031065;28;20502;-62
2021/09/02 08:24:06;;;;;;;5.80;5.30;;;23.50;99.90;;;;;;5031604;28;20480;-62
2021/09/02 08:26:34;;;;;;;5.90;5.30;;;23.00;99.90;;;;;;5031062;28;20484;-62
2021/09/02 08:29:01;;;;;;;5.53;5.00;;;23.50;99.90;;;;;;5031494;28;20918;-61
2021/09/02 08:31:30;;;;;;;6.73;5.17;;;23.80;99.90;;;;;;5031316;28;20519;-62
2021/09/02 08:33:59;;;;;;;7.70;5.50;;;24.60;99.90;;;;;;5031469;28;20609;-62
2021/09/02 08:36:26;;;;;;;7.00;5.90;;;23.60;99.90;;;;;;5031463;28;20468;-62
2021/09/02 08:38:53;;;;;;;7.93;5.90;;;24.20;99.90;;;;;;5031296;28;20506;-62
2021/09/02 08:41:21;;;;;;;7.00;6.00;;;24.40;99.90;;;;;;5030976;28;20885;-61
2021/09/02 08:43:48;;;;;;;7.20;6.40;;;22.50;99.90;;;;;;5031180;28;20449;-61
2021/09/02 08:46:15;;;;;;;8.17;7.33;;;22.00;99.90;;;;;;5031095;28;20465;-61
2021/09/02 08:48:46;;;;;;;13.73;7.13;;;22.00;99.90;;;;;;5031320;28;20444;-62
2021/09/02 08:51:15;;;;;;;6.93;6.13;;;22.60;99.90;;;;;;5032696;28;20475;-61
2021/09/02 08:53:43;;;;;;;8.33;6.83;;;22.90;99.90;;;;;;5035053;28;20522;-61
2021/09/02 08:56:10;;;;;;;6.90;6.20;;;23.00;99.90;;;;;;5034830;28;20942;-61
2021/09/02 08:58:37;;;;;;;8.53;7.07;;;23.00;99.90;;;;;;5035021;28;20452;-61
2021/09/02 09:01:06;;;;;;;7.10;6.40;;;23.20;99.90;;;;;;5034734;28;20452;-61
2021/09/02 09:03:34;;;;;;;6.90;6.20;;;23.50;99.90;;;;;;5034784;28;20456;-61
2021/09/02 09:06:06;;;;;;;5.97;5.43;;;23.20;99.90;;;;;;5034594;28;20499;-61
2021/09/02 09:08:36;;;;;;;7.13;6.37;;;23.90;99.90;;;;;;5034921;28;20456;-60
2021/09/02 09:11:19;;;;;;;6.83;5.97;;;24.20;99.90;;;;;;5034577;28;20600;-61
2021/09/02 09:13:46;;;;;;;7.30;5.90;;;23.00;99.90;;;;;;5034537;28;20476;-61
2021/09/02 09:16:14;;;;;;;7.30;6.27;;;23.30;99.90;;;;;;5034523;28;20508;-61
2021/09/02 09:18:43;;;;;;;7.43;6.70;;;24.20;99.90;;;;;;5034631;28;20931;-61
2021/09/02 09:21:12;;;;;;;7.03;6.30;;;24.90;99.90;;;;;;5034410;28;20472;-61
2021/09/02 09:23:58;;;;;;;8.10;6.40;;;24.80;99.90;;;;;;5034376;28;20540;-61
2021/09/02 09:26:26;;;;;;;6.43;5.83;;;25.00;99.90;;;;;;5034350;28;20559;-61
2021/09/02 09:28:56;;;;;;;6.40;5.87;;;24.80;99.90;;;;;;5045045;23;20575;-55
2021/09/02 09:31:32;;;;;;;6.57;5.80;;;24.60;99.90;;;;;;5013428;28;20528;-53
2021/09/02 09:34:01;;;;;;;6.77;6.07;;;24.20;99.90;;;;;;5013931;28;20481;-53
2021/09/02 09:36:30;;;;;;;7.00;6.30;;;24.30;99.90;;;;;;5014105;28;20453;-53
2021/09/02 09:39:09;;;;;;;7.40;6.70;;;24.40;99.90;;;;;;5013949;28;20477;-53
2021/09/02 09:41:38;;;;;;;8.40;7.07;;;24.40;99.90;;;;;;5013767;28;20515;-53
2021/09/02 09:44:19;;;;;;;8.60;7.60;;;23.70;99.90;;;;;;5013890;28;20442;-53
2021/09/02 09:47:12;;;;;;;11.40;8.03;;;23.60;99.90;;;;;;5013744;28;20508;-55
2021/09/02 09:49:44;;;;;;;8.97;7.23;;;24.30;99.90;;;;;;5013625;28;20504;-54
2021/09/02 09:52:26;;;;;;;7.53;6.80;;;24.50;99.90;;;;;;5013367;28;20445;-54
2021/09/02 09:55:00;;;;;;;9.83;8.80;;;25.00;99.90;;;;;;5013535;28;20489;-53
2021/09/02 09:57:30;;;;;;;9.77;8.77;;;23.70;99.90;;;;;;5013897;28;20449;-53
2021/09/02 10:00:01;;;;;;;10.20;8.10;;;23.00;99.90;;;;;;5013953;28;20537;-54
2021/09/02 10:02:29;;;;;;;8.60;7.70;;;22.80;99.90;;;;;;5012951;28;20532;-53
2021/09/02 10:04:57;;;;;;;9.00;8.10;;;23.40;99.90;;;;;;5013534;28;20539;-53
2021/09/02 10:07:24;;;;;;;9.93;8.40;;;23.10;99.90;;;;;;5013830;28;20457;-55
2021/09/02 10:09:53;;;;;;;9.00;7.23;;;22.60;99.90;;;;;;5013234;28;20523;-55
2021/09/02 10:12:23;;;;;;;10.00;8.53;;;23.10;99.90;;;;;;5013308;28;20895;-53
2021/09/02 10:14:51;;;;;;;9.20;8.13;;;23.30;99.90;;;;;;5013350;28;21002;-53
2021/09/02 10:17:18;;;;;;;12.73;8.00;;;23.70;99.90;;;;;;5013278;28;20453;-54
2021/09/02 10:19:46;;;;;;;9.70;7.80;;;24.40;99.90;;;;;;5013122;28;20473;-53
2021/09/02 10:22:13;;;;;;;9.87;8.40;;;24.50;99.90;;;;;;5013181;28;20445;-53
2021/09/02 10:24:41;;;;;;;9.90;8.60;;;23.80;99.90;;;;;;5013220;28;20523;-53
2021/09/02 10:27:38;;;;;;;9.40;7.80;;;23.30;99.90;;;;;;5013359;28;20457;-53
2021/09/02 10:30:33;;;;;;;8.37;7.47;;;22.90;99.90;;;;;;5012965;28;20481;-53
2021/09/02 10:33:00;;;;;;;7.83;6.50;;;23.30;99.90;;;;;;4967518;28;20523;-53
2021/09/02 10:35:35;;;;;;;15.63;7.20;;;23.70;99.90;;;;;;5012785;28;20987;-53
2021/09/02 10:38:03;;;;;;;10.20;6.97;;;24.60;99.90;;;;;;5012874;28;20511;-54
2021/09/02 10:40:49;;;;;;;8.50;7.60;;;23.70;99.90;;;;;;5012632;28;20445;-53
2021/09/02 10:44:01;;;;;;;7.90;6.47;;;23.30;99.90;;;;;;5013105;28;20482;-53
2021/09/02 10:46:35;;;;;;;7.40;6.50;;;23.40;99.90;;;;;;5012775;28;21018;-54
2021/09/02 10:49:16;;;;;;;7.40;6.70;;;24.10;99.90;;;;;;5012617;28;20488;-53
2021/09/02 10:51:45;;;;;;;7.90;6.63;;;24.20;99.90;;;;;;5012603;28;20441;-55
2021/09/02 10:54:15;;;;;;;7.63;6.73;;;23.70;99.90;;;;;;5012446;28;21009;-53
2021/09/02 10:57:03;;;;;;;7.37;6.67;;;23.90;99.90;;;;;;5012027;28;20476;-52
2021/09/02 10:59:44;;;;;;;7.57;6.87;;;23.50;99.90;;;;;;5005051;28;20484;-54
2021/09/02 11:02:42;;;;;;;10.60;6.70;;;22.70;99.90;;;;;;5012567;28;20453;-55
2021/09/02 11:05:15;;;;;;;7.03;5.97;;;22.60;99.90;;;;;;5012607;28;20449;-55
2021/09/02 11:07:44;;;;;;;7.53;6.63;;;23.00;99.90;;;;;;5011588;28;20457;-52
2021/09/02 11:10:14;;;;;;;8.40;6.10;;;23.20;99.90;;;;;;5012349;28;20511;-53
2021/09/02 11:12:41;;;;;;;7.83;7.07;;;23.20;99.90;;;;;;5012785;28;20449;-53
2021/09/02 11:15:13;;;;;;;7.00;6.30;;;23.30;99.90;;;;;;5011120;28;20489;-53
2021/09/02 11:17:51;;;;;;;8.50;7.33;;;23.70;99.90;;;;;;5011884;28;20880;-53
2021/09/02 11:20:20;;;;;;;7.63;6.50;;;23.70;99.90;;;;;;5011262;28;20457;-52
2021/09/02 11:22:47;;;;;;;8.67;6.30;;;23.50;99.90;;;;;;5012425;28;20482;-55
2021/09/02 11:25:15;;;;;;;7.50;6.47;;;22.70;99.90;;;;;;5012511;28;20457;-55
2021/09/02 11:27:42;;;;;;;6.33;5.60;;;22.50;99.90;;;;;;5012190;28;20492;-55
2021/09/02 11:30:20;;;;;;;6.83;6.13;;;22.80;99.90;;;;;;5011699;28;20489;-55
2021/09/02 11:32:53;;;;;;;7.03;6.33;;;23.20;99.90;;;;;;5011132;28;20515;-53
2021/09/02 11:35:20;;;;;;;7.07;6.33;;;23.40;99.90;;;;;;5011865;28;20548;-53
2021/09/02 11:37:47;;;;;;;9.80;6.73;;;23.30;99.90;;;;;;5012000;28;20457;-55
2021/09/02 11:40:23;;;;;;;8.07;6.80;;;22.60;99.90;;;;;;5011874;28;20457;-54
2021/09/02 11:42:51;;;;;;;6.53;5.83;;;22.00;99.90;;;;;;5011962;28;20484;-55
2021/09/02 11:45:19;;;;;;;7.83;6.47;;;22.10;99.90;;;;;;5012099;28;21200;-54
2021/09/02 11:47:49;;;;;;;8.33;5.77;;;22.10;99.90;;;;;;5011811;28;20512;-55
2021/09/02 11:50:17;;;;;;;6.73;5.70;;;22.60;99.90;;;;;;5011633;28;20456;-54
2021/09/02 11:52:45;;;;;;;7.00;6.30;;;23.10;99.90;;;;;;5011559;28;20508;-55
2021/09/02 11:55:28;;;;;;;7.37;6.23;;;22.70;99.90;;;;;;5011208;28;20547;-55
2021/09/02 11:57:57;;;;;;;7.03;6.33;;;22.70;99.90;;;;;;5010142;28;20479;-55
2021/09/02 12:00:25;;;;;;;6.57;5.87;;;22.40;99.90;;;;;;5010987;28;21028;-54
2021/09/02 12:02:56;;;;;;;6.60;5.53;;;22.20;99.90;;;;;;5012134;28;20445;-54
2021/09/02 12:05:27;;;;;;;7.87;6.17;;;22.30;99.90;;;;;;5011886;28;20472;-54
2021/09/02 12:07:56;;;;;;;7.57;6.33;;;22.30;99.90;;;;;;5011871;28;20473;-55
2021/09/02 12:10:23;;;;;;;6.93;6.23;;;22.20;99.90;;;;;;5011087;28;20453;-54
2021/09/02 12:12:51;;;;;;;8.13;6.77;;;22.40;99.90;;;;;;5011869;28;20441;-55
2021/09/02 12:15:27;;;;;;;7.70;5.93;;;22.30;99.90;;;;;;5011852;28;20551;-54
2021/09/02 12:18:10;;;;;;;6.50;5.67;;;22.20;99.90;;;;;;5011784;28;20472;-55
2021/09/02 12:20:38;;;;;;;6.73;6.03;;;22.30;99.90;;;;;;5011458;28;20813;-55
2021/09/02 12:23:24;;;;;;;6.20;5.60;;;22.50;99.90;;;;;;5011679;28;20441;-55
2021/09/02 12:26:03;;;;;;;6.73;6.00;;;22.50;99.90;;;;;;5012653;28;20441;-54
2021/09/02 12:28:32;;;;;;;6.70;5.80;;;22.70;99.90;;;;;;5013763;28;20476;-55
2021/09/02 12:31:12;;;;;;;6.97;6.27;;;22.70;99.90;;;;;;5015101;28;20441;-54
2021/09/02 12:33:57;;;;;;;6.07;5.53;;;22.60;99.90;;;;;;5015328;28;20441;-55
2021/09/02 12:36:25;;;;;;;6.40;5.77;;;22.80;99.90;;;;;;5015409;28;20489;-55
2021/09/02 12:38:52;;;;;;;7.13;6.40;;;23.00;99.90;;;;;;5015247;28;20481;-55
2021/09/02 12:41:21;;;;;;;7.50;6.80;;;23.00;99.90;;;;;;5015181;28;21024;-55
2021/09/02 12:44:12;;;;;;;6.67;6.07;;;22.90;99.90;;;;;;5014997;28;20449;-55
2021/09/02 12:46:54;;;;;;;7.23;6.23;;;23.20;99.90;;;;;;4985406;28;20454;-54
2021/09/02 12:49:23;;;;;;;7.90;6.10;;;22.90;99.90;;;;;;4995724;28;20462;-54
2021/09/02 12:52:12;;;;;;;6.20;5.70;;;22.90;99.90;;;;;;4995080;28;20458;-54